Station: Sunshine Coast Airport  

  Atmospheric Gas Attenuation - ITU Rec 676-11   ----------------- dB/100km -----------------
Date Time Temp RH % AH g/m3 Dew Point Wind Direction Speed kph Gust kph Barometer mB Rainfall Since 9am 24GHz 47GHz 76GHz 122GHz 134GHz 241GHz
03/05 09:00 22.9 72 14.71 17.6 17 24 1021 0 32.0 33.4 60.0 158.4 167.6 581.3
03/05 08:50 22.3 74 14.61 17.4 15 20 1021.1 0 31.8 33.5 60.1 158.5 167.5 580.9
03/05 08:40 22 73 14.17 16.9 19 20 1021 0 30.9 32.8 58.4 154.0 161.9 561.2
03/05 08:30 21.5 75 14.14 16.9 20 24 1020.9 0 30.9 33.0 58.6 154.6 162.5 563.3
03/05 08:20 21.7 74 14.11 16.9 17 20 1020.8 0 30.8 32.8 58.3 153.9 161.6 560.3
03/05 08:10 21.6 74 14.03 16.8 20 22 1020.7 0 30.7 32.7 58.1 153.1 160.7 557.0
03/05 08:00 21 75 13.74 16.4 20 28 1020.6 0 30.1 32.5 57.2 150.9 157.8 546.9
03/05 07:50 20.9 75 13.66 16.3 19 20 1020.5 0 29.9 32.3 57.0 150.2 156.9 543.6
03/05 07:40 20.7 76 13.68 16.3 19 24 1020.4 0 30.0 32.5 57.2 150.8 157.5 546.0
03/05 07:30 20.5 77 13.7 16.3 19 24 1020.3 0 30.0 32.6 57.4 151.4 158.2 548.3
03/05 07:20 20.1 78 13.56 16.1 19 22 1020.3 0 29.8 32.5 57.1 150.6 157.1 544.2
03/05 07:10 19.5 80 13.43 16 17 19 1020.2 0 29.5 32.5 57.0 150.2 156.4 541.9
03/05 07:00 19.1 80 13.11 15.6 17 22 1020.1 0 28.9 32.0 55.9 147.2 152.6 528.6
03/05 06:50 19 80 13.04 15.5 17 20 1020.2 0 28.7 32.0 55.6 146.6 151.8 525.8
03/05 06:40 18.9 80 12.96 15.4 15 17 1020.2 0 28.6 31.9 55.3 145.9 150.9 522.5
03/05 06:30 19.2 79 13.03 15.5 22 28 1019.9 0 28.7 31.9 55.4 146.1 151.3 523.8
03/05 06:20 19.1 78 12.79 15.2 17 19 1020 0 28.2 31.5 54.5 143.5 148.1 512.6
03/05 06:10 19.2 78 12.86 15.3 17 19 1019.9 0 28.4 31.6 54.7 144.1 148.8 515.4
03/05 06:00 19.2 78 12.86 15.3 20 28 1019.7 0 28.4 31.5 54.7 144.1 148.8 515.3
03/05 05:50 19.3 78 12.94 15.4 17 19 1019.6 0 28.5 31.6 54.9 144.8 149.7 518.6
03/05 05:40 19.3 78 12.94 15.4 20 24 1019.7 0 28.5 31.7 54.9 144.8 149.8 518.6
03/05 05:30 19.4 79 13.18 15.7 19 24 1019.5 0 29.0 32.0 55.9 147.4 153.0 529.8
03/05 05:20 19.4 79 13.18 15.7 19 20 1019.6 0 29.0 32.0 55.9 147.4 153.0 529.8
03/05 05:10 19.5 79 13.26 15.8 19 22 1019.5 0 29.2 32.1 56.2 148.1 153.9 533.1
03/05 05:00 19.7 79 13.41 16 20 24 1019.4 0 29.5 32.3 56.7 149.5 155.6 539.2
03/05 04:50 19.7 79 13.41 16 20 22 1019.6 0 29.5 32.3 56.7 149.5 155.6 539.2
03/05 04:40 19.7 80 13.58 16.2 17 20 1019.6 0 29.9 32.6 57.4 151.5 158.1 547.8
03/05 04:30 19.8 80 13.66 16.3 17 20 1019.5 0 30.0 32.7 57.7 152.2 159.0 551.0
03/05 04:20 19.9 80 13.74 16.3 17 20 1019.6 0 30.2 32.8 58.0 153.0 160.0 554.4
03/05 04:10 19.7 81 13.75 16.3 13 15 1019.4 0 30.2 32.9 58.2 153.5 160.5 556.2
03/05 04:00 19.9 80 13.74 16.3 15 20 1019.2 0 30.2 32.8 58.0 152.9 159.9 554.2
03/05 03:50 19.6 81 13.67 16.3 13 15 1019.4 0 30.1 32.8 57.9 152.7 159.6 552.9
03/05 03:40 19.7 80 13.58 16.2 15 17 1019.4 0 29.9 32.6 57.4 151.5 158.1 547.7
03/05 03:30 19.4 79 13.18 15.7 11 13 1019.3 0 29.0 32.0 55.9 147.4 152.9 529.7
03/05 03:20 19.9 76 13.06 15.5 13 13 1019.5 0 28.7 31.6 55.0 145.1 150.3 520.4
03/05 03:10 21.3 69 12.86 15.4 17 19 1019.4 0 28.2 30.8 53.2 140.2 144.8 501.4
03/05 03:00 22.3 66 13.03 15.6 24 33 1019.4 0 28.5 30.7 53.2 140.3 145.2 503.1
03/05 02:50 22.2 66 12.96 15.5 20 24 1019.6 0 28.4 30.6 53.0 139.7 144.5 500.5
03/05 02:40 22.2 66 12.96 15.5 22 26 1019.6 0 28.4 30.6 53.0 139.7 144.5 500.5
03/05 02:30 22.3 67 13.23 15.9 24 33 1019.6 0 28.9 31.1 54.1 142.6 148.0 512.8
03/05 02:20 22.4 67 13.31 16 26 30 1019.8 0 29.1 31.2 54.4 143.3 148.9 516.0
03/05 02:10 22.2 68 13.35 16 24 28 1019.8 0 29.2 31.3 54.7 144.1 149.8 519.3
03/05 02:00 22.4 66 13.11 15.7 26 37 1019.8 0 28.7 30.8 53.5 141.1 146.1 506.4
03/05 01:50 22.4 68 13.5 16.2 24 30 1019.9 0 29.5 31.5 55.2 145.4 151.5 525.2
03/05 01:40 22.2 68 13.35 16 24 28 1020 0 29.2 31.3 54.7 144.1 149.9 519.3
03/05 01:30 22.4 68 13.5 16.2 24 35 1019.9 0 29.5 31.5 55.2 145.4 151.5 525.2
03/05 01:20 22.5 66 13.18 15.8 28 32 1019.8 0 28.8 30.9 53.7 141.7 146.9 509.1
03/05 01:10 22.4 68 13.5 16.2 26 32 1020.1 0 29.5 31.5 55.2 145.5 151.5 525.3
03/05 01:00 22.5 66 13.18 15.8 26 35 1020.1 0 28.8 30.9 53.8 141.7 146.9 509.2
03/05 00:50 22.6 65 13.06 15.7 26 32 1020.3 0 28.5 30.7 53.2 140.2 145.1 503.0
03/05 00:40 22.6 66 13.26 15.9 28 33 1020.3 0 29.0 31.0 54.0 142.4 147.9 512.5
03/05 00:30 22.5 68 13.58 16.3 26 35 1020.3 0 29.6 31.6 55.4 146.2 152.5 528.5
03/05 00:20 22.6 68 13.66 16.4 26 37 1020.5 0 29.8 31.7 55.7 146.9 153.4 531.8
03/05 00:10 22.6 68 13.66 16.4 22 28 1020.6 0 29.8 31.7 55.7 147.0 153.4 531.8
03/05 00:00 22.7 69 13.94 16.7 28 37 1020.5 0 30.4 32.2 56.8 149.9 157.1 544.7
02/05 23:50 22.6 71 14.26 17.1 24 30 1020.8 0 31.1 32.8 58.3 153.8 161.8 561.2
02/05 23:40 22.7 70 14.14 16.9 24 32 1020.7 0 30.8 32.5 57.7 152.2 159.9 554.5
02/05 23:30 22.7 70 14.14 16.9 28 39 1020.7 0 30.8 32.5 57.7 152.2 159.9 554.5
02/05 23:20 22.7 71 14.34 17.2 22 26 1020.9 0 31.2 32.9 58.6 154.5 162.8 564.4
02/05 23:10 22.7 71 14.34 17.2 28 35 1020.9 0 31.2 32.9 58.6 154.5 162.8 564.4
02/05 23:00 22.7 72 14.55 17.4 28 41 1020.8 0 31.7 33.2 59.5 157.0 165.7 574.8
02/05 22:50 22.7 71 14.34 17.2 26 32 1020.9 0 31.2 32.9 58.6 154.5 162.8 564.4
02/05 22:40 22.8 71 14.43 17.3 26 32 1021 0 31.4 33.0 58.9 155.4 163.8 568.2
02/05 22:30 22.8 71 14.43 17.3 26 37 1020.9 0 31.4 33.0 58.9 155.4 163.8 568.2
02/05 22:20 22.8 69 14.02 16.8 26 35 1021.1 0 30.6 32.3 57.1 150.7 158.1 548.1
02/05 22:10 22.9 71 14.51 17.4 28 37 1021 0 31.6 33.1 59.2 156.1 164.8 571.4
02/05 22:00 22.8 72 14.63 17.5 28 37 1020.9 0 31.8 33.3 59.8 157.7 166.7 578.0
02/05 21:50 22.8 73 14.83 17.7 30 37 1020.9 0 32.3 33.7 60.6 160.0 169.5 588.0
02/05 21:40 22.9 71 14.51 17.4 32 39 1020.9 0 31.6 33.1 59.2 156.1 164.7 571.4
02/05 21:30 23 73 15 17.9 28 39 1020.7 0 32.6 33.9 61.2 161.5 171.5 594.9
02/05 21:20 23 73 15 17.9 28 35 1020.8 0 32.6 33.9 61.2 161.6 171.5 594.9
02/05 21:10 23 72 14.8 17.7 26 33 1020.8 0 32.2 33.6 60.3 159.2 168.6 584.9
02/05 21:00 23.1 71 14.68 17.6 28 39 1020.9 0 31.9 33.3 59.7 157.7 166.7 578.3
02/05 20:50 23 71 14.59 17.5 30 33 1020.9 0 31.7 33.2 59.4 156.8 165.7 574.6
02/05 20:40 23.2 73 15.18 18.1 28 35 1021 0 33.0 34.2 61.9 163.3 173.6 602.4
02/05 20:30 23.1 71 14.68 17.6 30 43 1020.8 0 31.9 33.3 59.7 157.6 166.7 578.2
02/05 20:20 23.2 70 14.55 17.4 35 43 1020.8 0 31.6 33.0 59.1 155.9 164.6 571.1
02/05 20:10 23.1 74 15.3 18.2 28 33 1020.8 0 33.2 34.4 62.5 164.9 175.6 609.2
02/05 20:00 23 76 15.62 18.5 26 35 1020.7 0 33.9 35.0 63.9 168.8 180.4 626.1
02/05 19:50 23 76 15.62 18.5 20 24 1020.6 0 33.9 35.0 63.9 168.8 180.4 626.1
02/05 19:40 23 74 15.21 18.1 28 32 1020.3 0 33.1 34.3 62.1 163.9 174.4 605.2
02/05 19:30 23 74 15.21 18.1 30 39 1020 0 33.1 34.2 62.1 163.9 174.4 605.1
02/05 19:20 23 76 15.62 18.5 24 28 1020.1 0 33.9 35.0 63.9 168.8 180.4 625.8
02/05 19:10 23 74 15.21 18.1 26 30 1020.1 0 33.1 34.2 62.1 163.9 174.4 605.1
02/05 19:00 23.1 73 15.09 18 32 41 1019.9 0 32.8 34.0 61.5 162.3 172.4 598.2
02/05 18:50 23 74 15.21 18.1 24 32 1019.8 0 33.1 34.2 62.1 163.9 174.4 605.0
02/05 18:40 23.1 75 15.5 18.4 30 35 1019.9 0 33.7 34.7 63.3 167.1 178.4 618.8
02/05 18:30 23.2 74 15.38 18.3 28 39 1019.8 0 33.4 34.5 62.7 165.4 176.4 612.0
02/05 18:20 23.1 75 15.5 18.4 22 30 1019.8 0 33.7 34.7 63.3 167.1 178.3 618.8
02/05 18:10 23.2 74 15.38 18.3 28 33 1019.9 0 33.4 34.5 62.7 165.5 176.4 612.0
02/05 18:00 23.2 75 15.59 18.5 24 35 1019.8 0 33.8 34.8 63.6 167.9 179.4 622.5
02/05 17:50 23.2 75 15.59 18.5 26 32 1019.7 0 33.9 34.8 63.6 167.9 179.4 622.5
02/05 17:40 23.1 75 15.5 18.4 24 28 1019.4 0 33.7 34.7 63.3 167.0 178.3 618.6
02/05 17:30 23.2 76 15.8 18.7 28 39 1019.2 0 34.3 35.2 64.5 170.3 182.4 632.9
02/05 17:20 23.2 73 15.18 18.1 28 35 1019.2 0 33.0 34.1 61.8 163.0 173.4 601.7
02/05 17:10 23.2 74 15.38 18.3 30 35 1019.4 0 33.4 34.4 62.6 165.4 176.3 611.8
02/05 17:00 23.3 75 15.68 18.6 26 33 1019.1 0 34.0 34.9 63.9 168.7 180.4 626.0
02/05 16:50 23.4 75 15.77 18.7 26 33 1019 0 34.2 35.0 64.2 169.5 181.4 629.7
02/05 16:40 23.5 73 15.44 18.4 30 35 1018.9 0 33.5 34.4 62.6 165.4 176.4 612.2
02/05 16:30 23.5 73 15.44 18.4 28 39 1018.7 0 33.5 34.4 62.6 165.4 176.4 612.1

Last Refresh: 03-May-2026 08:44:10

Bureau of Meteorology